sensor_id;sensor_type;location;lat;lon;timestamp;P1;durP1;ratioP1;P2;durP2;ratioP2
32613;SDS011;19031;51.400;6.770;2022-10-16T00:00:34;8.10;;;2.30;;
32613;SDS011;19031;51.400;6.770;2022-10-16T00:03:00;5.18;;;2.25;;
32613;SDS011;19031;51.400;6.770;2022-10-16T00:05:26;5.65;;;2.20;;
32613;SDS011;19031;51.400;6.770;2022-10-16T00:07:52;4.47;;;2.53;;
32613;SDS011;19031;51.400;6.770;2022-10-16T00:10:17;5.78;;;2.03;;
32613;SDS011;19031;51.400;6.770;2022-10-16T00:12:43;10.65;;;2.63;;
32613;SDS011;19031;51.400;6.770;2022-10-16T00:15:09;3.20;;;1.92;;
32613;SDS011;19031;51.400;6.770;2022-10-16T00:17:34;4.78;;;2.15;;
32613;SDS011;19031;51.400;6.770;2022-10-16T00:20:00;6.63;;;2.65;;
32613;SDS011;19031;51.400;6.770;2022-10-16T00:22:26;3.53;;;2.22;;
32613;SDS011;19031;51.400;6.770;2022-10-16T00:24:51;7.10;;;2.55;;
32613;SDS011;19031;51.400;6.770;2022-10-16T00:27:17;4.93;;;2.25;;
32613;SDS011;19031;51.400;6.770;2022-10-16T00:29:42;5.15;;;2.70;;
32613;SDS011;19031;51.400;6.770;2022-10-16T00:32:08;4.43;;;2.40;;
32613;SDS011;19031;51.400;6.770;2022-10-16T00:34:34;5.72;;;2.10;;
32613;SDS011;19031;51.400;6.770;2022-10-16T00:37:00;7.47;;;2.40;;
32613;SDS011;19031;51.400;6.770;2022-10-16T00:39:25;11.43;;;3.17;;
32613;SDS011;19031;51.400;6.770;2022-10-16T00:41:51;4.78;;;3.13;;
32613;SDS011;19031;51.400;6.770;2022-10-16T00:47:27;6.03;;;3.38;;
32613;SDS011;19031;51.400;6.770;2022-10-16T00:52:30;7.65;;;4.30;;
32613;SDS011;19031;51.400;6.770;2022-10-16T00:54:56;8.35;;;3.88;;
32613;SDS011;19031;51.400;6.770;2022-10-16T00:57:23;16.85;;;4.78;;
32613;SDS011;19031;51.400;6.770;2022-10-16T00:59:50;13.88;;;5.18;;
32613;SDS011;19031;51.400;6.770;2022-10-16T01:02:16;8.30;;;4.85;;
32613;SDS011;19031;51.400;6.770;2022-10-16T01:04:49;9.98;;;4.78;;
32613;SDS011;19031;51.400;6.770;2022-10-16T01:10:45;10.00;;;5.55;;
32613;SDS011;19031;51.400;6.770;2022-10-16T01:13:25;12.57;;;6.47;;
32613;SDS011;19031;51.400;6.770;2022-10-16T01:21:43;14.10;;;5.88;;
32613;SDS011;19031;51.400;6.770;2022-10-16T01:29:17;17.10;;;4.53;;
32613;SDS011;19031;51.400;6.770;2022-10-16T01:31:47;9.07;;;3.90;;
32613;SDS011;19031;51.400;6.770;2022-10-16T01:34:18;7.40;;;3.90;;
32613;SDS011;19031;51.400;6.770;2022-10-16T01:36:51;7.45;;;4.07;;
32613;SDS011;19031;51.400;6.770;2022-10-16T01:39:22;9.63;;;4.05;;
32613;SDS011;19031;51.400;6.770;2022-10-16T01:41:55;5.63;;;3.25;;
32613;SDS011;19031;51.400;6.770;2022-10-16T01:44:29;11.05;;;4.57;;
32613;SDS011;19031;51.400;6.770;2022-10-16T01:46:58;14.32;;;4.72;;
32613;SDS011;19031;51.400;6.770;2022-10-16T01:49:25;9.93;;;4.85;;
32613;SDS011;19031;51.400;6.770;2022-10-16T01:51:56;11.65;;;4.95;;
32613;SDS011;19031;51.400;6.770;2022-10-16T01:54:28;8.90;;;5.18;;
32613;SDS011;19031;51.400;6.770;2022-10-16T01:56:56;8.48;;;4.68;;
32613;SDS011;19031;51.400;6.770;2022-10-16T01:59:24;10.57;;;4.70;;
32613;SDS011;19031;51.400;6.770;2022-10-16T02:01:58;6.53;;;3.80;;
32613;SDS011;19031;51.400;6.770;2022-10-16T02:04:33;6.65;;;3.92;;
32613;SDS011;19031;51.400;6.770;2022-10-16T02:07:02;11.50;;;4.95;;
32613;SDS011;19031;51.400;6.770;2022-10-16T02:09:28;6.60;;;3.60;;
32613;SDS011;19031;51.400;6.770;2022-10-16T02:11:55;4.47;;;2.63;;
32613;SDS011;19031;51.400;6.770;2022-10-16T02:14:24;7.45;;;2.47;;
32613;SDS011;19031;51.400;6.770;2022-10-16T02:16:51;10.15;;;2.47;;
32613;SDS011;19031;51.400;6.770;2022-10-16T02:19:17;9.38;;;1.83;;
32613;SDS011;19031;51.400;6.770;2022-10-16T02:21:55;7.50;;;1.80;;
32613;SDS011;19031;51.400;6.770;2022-10-16T02:27:06;2.35;;;1.52;;
32613;SDS011;19031;51.400;6.770;2022-10-16T02:29:42;4.65;;;1.52;;
32613;SDS011;19031;51.400;6.770;2022-10-16T02:32:15;2.35;;;1.48;;
32613;SDS011;19031;51.400;6.770;2022-10-16T02:34:45;6.90;;;1.58;;
32613;SDS011;19031;51.400;6.770;2022-10-16T02:37:13;3.05;;;1.52;;
32613;SDS011;19031;51.400;6.770;2022-10-16T02:39:39;1.83;;;1.20;;
32613;SDS011;19031;51.400;6.770;2022-10-16T02:42:09;2.00;;;1.42;;
32613;SDS011;19031;51.400;6.770;2022-10-16T02:44:36;3.30;;;1.50;;
32613;SDS011;19031;51.400;6.770;2022-10-16T02:47:02;2.75;;;1.33;;
32613;SDS011;19031;51.400;6.770;2022-10-16T02:49:27;6.22;;;1.20;;
32613;SDS011;19031;51.400;6.770;2022-10-16T02:51:53;1.77;;;1.17;;
32613;SDS011;19031;51.400;6.770;2022-10-16T02:54:19;2.22;;;1.20;;
32613;SDS011;19031;51.400;6.770;2022-10-16T02:56:44;1.77;;;1.10;;
32613;SDS011;19031;51.400;6.770;2022-10-16T02:59:10;2.35;;;1.27;;
32613;SDS011;19031;51.400;6.770;2022-10-16T03:01:35;2.90;;;1.50;;
32613;SDS011;19031;51.400;6.770;2022-10-16T03:04:01;2.75;;;1.08;;
32613;SDS011;19031;51.400;6.770;2022-10-16T03:06:27;2.55;;;1.30;;
32613;SDS011;19031;51.400;6.770;2022-10-16T03:08:52;2.35;;;1.55;;
32613;SDS011;19031;51.400;6.770;2022-10-16T03:11:18;3.33;;;1.45;;
32613;SDS011;19031;51.400;6.770;2022-10-16T03:13:43;1.52;;;1.00;;
32613;SDS011;19031;51.400;6.770;2022-10-16T03:16:09;2.00;;;1.30;;
32613;SDS011;19031;51.400;6.770;2022-10-16T03:18:35;3.33;;;1.10;;
32613;SDS011;19031;51.400;6.770;2022-10-16T03:21:01;1.60;;;1.08;;
32613;SDS011;19031;51.400;6.770;2022-10-16T03:23:26;3.13;;;1.40;;
32613;SDS011;19031;51.400;6.770;2022-10-16T03:25:53;2.22;;;1.30;;
32613;SDS011;19031;51.400;6.770;2022-10-16T03:28:18;1.80;;;1.10;;
32613;SDS011;19031;51.400;6.770;2022-10-16T03:30:44;2.65;;;1.00;;
32613;SDS011;19031;51.400;6.770;2022-10-16T03:33:10;2.65;;;1.10;;
32613;SDS011;19031;51.400;6.770;2022-10-16T03:35:35;1.98;;;1.00;;
32613;SDS011;19031;51.400;6.770;2022-10-16T03:38:01;1.33;;;0.82;;
32613;SDS011;19031;51.400;6.770;2022-10-16T03:40:27;1.92;;;1.00;;
32613;SDS011;19031;51.400;6.770;2022-10-16T03:42:52;1.35;;;0.90;;
32613;SDS011;19031;51.400;6.770;2022-10-16T03:45:22;2.15;;;1.00;;
32613;SDS011;19031;51.400;6.770;2022-10-16T03:47:47;3.40;;;1.02;;
32613;SDS011;19031;51.400;6.770;2022-10-16T03:50:13;1.17;;;0.75;;
32613;SDS011;19031;51.400;6.770;2022-10-16T03:52:39;2.85;;;0.98;;
32613;SDS011;19031;51.400;6.770;2022-10-16T03:55:04;1.08;;;0.70;;
32613;SDS011;19031;51.400;6.770;2022-10-16T03:57:30;1.63;;;0.93;;
32613;SDS011;19031;51.400;6.770;2022-10-16T03:59:56;3.00;;;1.10;;
32613;SDS011;19031;51.400;6.770;2022-10-16T04:02:22;2.25;;;1.00;;
32613;SDS011;19031;51.400;6.770;2022-10-16T04:04:47;1.55;;;1.10;;
32613;SDS011;19031;51.400;6.770;2022-10-16T04:07:13;2.30;;;0.95;;
32613;SDS011;19031;51.400;6.770;2022-10-16T04:09:39;1.23;;;0.80;;
32613;SDS011;19031;51.400;6.770;2022-10-16T04:12:04;1.30;;;0.93;;
32613;SDS011;19031;51.400;6.770;2022-10-16T04:14:30;1.27;;;0.88;;
32613;SDS011;19031;51.400;6.770;2022-10-16T04:16:56;4.60;;;0.90;;
32613;SDS011;19031;51.400;6.770;2022-10-16T04:19:21;1.73;;;0.77;;
32613;SDS011;19031;51.400;6.770;2022-10-16T04:21:47;0.98;;;0.70;;
32613;SDS011;19031;51.400;6.770;2022-10-16T04:24:12;2.00;;;1.05;;
32613;SDS011;19031;51.400;6.770;2022-10-16T04:26:38;1.15;;;0.85;;
32613;SDS011;19031;51.400;6.770;2022-10-16T04:29:03;1.42;;;1.17;;
32613;SDS011;19031;51.400;6.770;2022-10-16T04:31:29;4.72;;;0.77;;
32613;SDS011;19031;51.400;6.770;2022-10-16T04:33:55;2.67;;;1.17;;
32613;SDS011;19031;51.400;6.770;2022-10-16T04:36:20;1.38;;;1.05;;
32613;SDS011;19031;51.400;6.770;2022-10-16T04:38:46;2.30;;;0.75;;
32613;SDS011;19031;51.400;6.770;2022-10-16T04:41:11;4.55;;;0.90;;
32613;SDS011;19031;51.400;6.770;2022-10-16T04:43:37;4.07;;;1.00;;
32613;SDS011;19031;51.400;6.770;2022-10-16T04:46:03;2.78;;;1.00;;
32613;SDS011;19031;51.400;6.770;2022-10-16T04:48:29;2.70;;;1.10;;
32613;SDS011;19031;51.400;6.770;2022-10-16T04:50:55;6.38;;;1.42;;
32613;SDS011;19031;51.400;6.770;2022-10-16T04:53:21;0.73;;;0.70;;
32613;SDS011;19031;51.400;6.770;2022-10-16T04:55:47;3.30;;;1.08;;
32613;SDS011;19031;51.400;6.770;2022-10-16T04:58:12;1.83;;;0.82;;
32613;SDS011;19031;51.400;6.770;2022-10-16T05:00:38;2.67;;;0.70;;
32613;SDS011;19031;51.400;6.770;2022-10-16T05:03:04;4.65;;;1.30;;
32613;SDS011;19031;51.400;6.770;2022-10-16T05:05:32;1.05;;;0.80;;
32613;SDS011;19031;51.400;6.770;2022-10-16T05:07:58;2.40;;;0.98;;
32613;SDS011;19031;51.400;6.770;2022-10-16T05:10:24;3.50;;;1.00;;
32613;SDS011;19031;51.400;6.770;2022-10-16T05:12:49;5.32;;;1.05;;
32613;SDS011;19031;51.400;6.770;2022-10-16T05:15:16;1.67;;;0.90;;
32613;SDS011;19031;51.400;6.770;2022-10-16T05:17:42;1.40;;;0.77;;
32613;SDS011;19031;51.400;6.770;2022-10-16T05:20:08;1.77;;;0.68;;
32613;SDS011;19031;51.400;6.770;2022-10-16T05:22:33;2.53;;;0.77;;
32613;SDS011;19031;51.400;6.770;2022-10-16T05:24:59;1.27;;;0.60;;
32613;SDS011;19031;51.400;6.770;2022-10-16T05:27:24;1.98;;;0.80;;
32613;SDS011;19031;51.400;6.770;2022-10-16T05:29:50;2.33;;;1.30;;
32613;SDS011;19031;51.400;6.770;2022-10-16T05:32:16;0.57;;;0.57;;
32613;SDS011;19031;51.400;6.770;2022-10-16T05:34:43;2.80;;;0.88;;
32613;SDS011;19031;51.400;6.770;2022-10-16T05:37:09;1.70;;;1.00;;
32613;SDS011;19031;51.400;6.770;2022-10-16T05:39:36;4.63;;;0.90;;
32613;SDS011;19031;51.400;6.770;2022-10-16T05:42:02;2.13;;;0.77;;
32613;SDS011;19031;51.400;6.770;2022-10-16T05:44:28;2.25;;;1.15;;
32613;SDS011;19031;51.400;6.770;2022-10-16T05:46:53;2.17;;;1.30;;
32613;SDS011;19031;51.400;6.770;2022-10-16T05:49:19;1.85;;;1.00;;
32613;SDS011;19031;51.400;6.770;2022-10-16T05:51:45;4.10;;;1.02;;
32613;SDS011;19031;51.400;6.770;2022-10-16T05:54:10;1.50;;;1.10;;
32613;SDS011;19031;51.400;6.770;2022-10-16T05:56:36;1.65;;;1.00;;
32613;SDS011;19031;51.400;6.770;2022-10-16T05:59:05;0.80;;;0.63;;
32613;SDS011;19031;51.400;6.770;2022-10-16T06:01:31;7.80;;;1.83;;
32613;SDS011;19031;51.400;6.770;2022-10-16T06:03:57;2.92;;;1.23;;
32613;SDS011;19031;51.400;6.770;2022-10-16T06:06:24;5.82;;;1.10;;
32613;SDS011;19031;51.400;6.770;2022-10-16T06:08:51;1.17;;;0.95;;
32613;SDS011;19031;51.400;6.770;2022-10-16T06:11:28;3.15;;;1.30;;
32613;SDS011;19031;51.400;6.770;2022-10-16T06:13:56;1.45;;;0.85;;
32613;SDS011;19031;51.400;6.770;2022-10-16T06:16:27;4.50;;;1.45;;
32613;SDS011;19031;51.400;6.770;2022-10-16T06:18:53;1.55;;;1.35;;
32613;SDS011;19031;51.400;6.770;2022-10-16T06:21:21;2.38;;;1.00;;
32613;SDS011;19031;51.400;6.770;2022-10-16T06:23:52;6.70;;;1.05;;
32613;SDS011;19031;51.400;6.770;2022-10-16T06:26:20;4.38;;;1.27;;
32613;SDS011;19031;51.400;6.770;2022-10-16T06:28:47;1.67;;;0.98;;
32613;SDS011;19031;51.400;6.770;2022-10-16T06:31:13;2.13;;;1.35;;
32613;SDS011;19031;51.400;6.770;2022-10-16T06:33:40;2.15;;;1.23;;
32613;SDS011;19031;51.400;6.770;2022-10-16T06:36:06;1.63;;;1.13;;
32613;SDS011;19031;51.400;6.770;2022-10-16T06:38:36;2.38;;;1.10;;
32613;SDS011;19031;51.400;6.770;2022-10-16T06:41:03;1.45;;;1.02;;
32613;SDS011;19031;51.400;6.770;2022-10-16T06:43:30;1.33;;;0.90;;
32613;SDS011;19031;51.400;6.770;2022-10-16T06:45:57;2.10;;;1.55;;
32613;SDS011;19031;51.400;6.770;2022-10-16T06:48:24;3.53;;;1.38;;
32613;SDS011;19031;51.400;6.770;2022-10-16T06:51:04;1.30;;;1.10;;
32613;SDS011;19031;51.400;6.770;2022-10-16T06:53:38;3.60;;;1.00;;
32613;SDS011;19031;51.400;6.770;2022-10-16T06:56:10;1.75;;;1.20;;
32613;SDS011;19031;51.400;6.770;2022-10-16T06:58:37;2.13;;;1.08;;
32613;SDS011;19031;51.400;6.770;2022-10-16T07:01:03;2.50;;;1.05;;
32613;SDS011;19031;51.400;6.770;2022-10-16T07:03:29;3.70;;;1.38;;
32613;SDS011;19031;51.400;6.770;2022-10-16T07:05:55;2.55;;;2.00;;
32613;SDS011;19031;51.400;6.770;2022-10-16T07:08:21;2.53;;;1.80;;
32613;SDS011;19031;51.400;6.770;2022-10-16T07:10:47;3.10;;;2.05;;
32613;SDS011;19031;51.400;6.770;2022-10-16T07:13:12;4.72;;;1.65;;
32613;SDS011;19031;51.400;6.770;2022-10-16T07:15:39;1.80;;;1.20;;
32613;SDS011;19031;51.400;6.770;2022-10-16T07:18:06;1.85;;;0.88;;
32613;SDS011;19031;51.400;6.770;2022-10-16T07:20:32;2.40;;;1.63;;
32613;SDS011;19031;51.400;6.770;2022-10-16T07:22:57;3.38;;;1.35;;
32613;SDS011;19031;51.400;6.770;2022-10-16T07:25:23;1.30;;;1.10;;
32613;SDS011;19031;51.400;6.770;2022-10-16T07:27:49;1.63;;;1.13;;
32613;SDS011;19031;51.400;6.770;2022-10-16T07:30:14;2.17;;;1.20;;
32613;SDS011;19031;51.400;6.770;2022-10-16T07:32:40;2.50;;;1.00;;
32613;SDS011;19031;51.400;6.770;2022-10-16T07:35:05;1.25;;;1.00;;
32613;SDS011;19031;51.400;6.770;2022-10-16T07:37:31;1.58;;;0.90;;
32613;SDS011;19031;51.400;6.770;2022-10-16T07:39:57;1.23;;;1.00;;
32613;SDS011;19031;51.400;6.770;2022-10-16T07:42:22;1.42;;;1.00;;
32613;SDS011;19031;51.400;6.770;2022-10-16T07:44:48;3.45;;;1.23;;
32613;SDS011;19031;51.400;6.770;2022-10-16T07:47:14;1.92;;;1.13;;
32613;SDS011;19031;51.400;6.770;2022-10-16T07:49:39;1.88;;;1.45;;
32613;SDS011;19031;51.400;6.770;2022-10-16T07:52:05;1.55;;;0.90;;
32613;SDS011;19031;51.400;6.770;2022-10-16T07:54:30;1.95;;;1.10;;
32613;SDS011;19031;51.400;6.770;2022-10-16T07:56:56;3.58;;;1.80;;
32613;SDS011;19031;51.400;6.770;2022-10-16T07:59:21;5.15;;;2.15;;
32613;SDS011;19031;51.400;6.770;2022-10-16T08:01:48;3.22;;;2.08;;
32613;SDS011;19031;51.400;6.770;2022-10-16T08:04:14;1.60;;;1.23;;
32613;SDS011;19031;51.400;6.770;2022-10-16T08:06:40;0.93;;;0.82;;
32613;SDS011;19031;51.400;6.770;2022-10-16T08:09:06;1.92;;;1.00;;
32613;SDS011;19031;51.400;6.770;2022-10-16T08:11:32;0.85;;;0.60;;
32613;SDS011;19031;51.400;6.770;2022-10-16T08:13:58;2.10;;;0.70;;
32613;SDS011;19031;51.400;6.770;2022-10-16T08:16:24;1.00;;;0.52;;
32613;SDS011;19031;51.400;6.770;2022-10-16T08:18:49;4.57;;;0.82;;
32613;SDS011;19031;51.400;6.770;2022-10-16T08:21:17;1.40;;;0.60;;
32613;SDS011;19031;51.400;6.770;2022-10-16T08:23:48;1.92;;;0.60;;
32613;SDS011;19031;51.400;6.770;2022-10-16T08:26:14;1.05;;;0.52;;
32613;SDS011;19031;51.400;6.770;2022-10-16T08:28:40;1.42;;;0.43;;
32613;SDS011;19031;51.400;6.770;2022-10-16T08:31:10;1.98;;;0.50;;
32613;SDS011;19031;51.400;6.770;2022-10-16T08:33:38;1.83;;;0.40;;
32613;SDS011;19031;51.400;6.770;2022-10-16T08:36:05;0.95;;;0.60;;
32613;SDS011;19031;51.400;6.770;2022-10-16T08:38:31;3.20;;;0.38;;
32613;SDS011;19031;51.400;6.770;2022-10-16T08:41:00;2.50;;;0.88;;
32613;SDS011;19031;51.400;6.770;2022-10-16T08:46:21;1.88;;;0.73;;
32613;SDS011;19031;51.400;6.770;2022-10-16T08:49:01;1.83;;;0.88;;
32613;SDS011;19031;51.400;6.770;2022-10-16T08:51:32;0.73;;;0.70;;
32613;SDS011;19031;51.400;6.770;2022-10-16T08:54:43;1.25;;;0.80;;
32613;SDS011;19031;51.400;6.770;2022-10-16T08:56:56;2.55;;;1.23;;
32613;SDS011;19031;51.400;6.770;2022-10-16T08:59:26;3.53;;;1.33;;
32613;SDS011;19031;51.400;6.770;2022-10-16T09:01:52;2.40;;;0.93;;
32613;SDS011;19031;51.400;6.770;2022-10-16T09:09:59;6.57;;;1.15;;
32613;SDS011;19031;51.400;6.770;2022-10-16T09:18:10;4.50;;;1.30;;
32613;SDS011;19031;51.400;6.770;2022-10-16T09:23:42;3.08;;;0.80;;
32613;SDS011;19031;51.400;6.770;2022-10-16T09:26:09;6.55;;;1.45;;
32613;SDS011;19031;51.400;6.770;2022-10-16T09:28:37;2.35;;;0.95;;
32613;SDS011;19031;51.400;6.770;2022-10-16T09:31:03;2.45;;;1.08;;
32613;SDS011;19031;51.400;6.770;2022-10-16T09:33:29;6.10;;;1.42;;
32613;SDS011;19031;51.400;6.770;2022-10-16T09:36:00;1.92;;;0.60;;
32613;SDS011;19031;51.400;6.770;2022-10-16T09:38:30;2.20;;;0.80;;
32613;SDS011;19031;51.400;6.770;2022-10-16T09:41:00;2.70;;;0.73;;
32613;SDS011;19031;51.400;6.770;2022-10-16T09:43:40;3.30;;;0.60;;
32613;SDS011;19031;51.400;6.770;2022-10-16T09:48:54;2.88;;;0.60;;
32613;SDS011;19031;51.400;6.770;2022-10-16T09:51:24;3.53;;;0.52;;
32613;SDS011;19031;51.400;6.770;2022-10-16T09:54:02;4.70;;;0.43;;
32613;SDS011;19031;51.400;6.770;2022-10-16T09:56:41;1.65;;;0.40;;
32613;SDS011;19031;51.400;6.770;2022-10-16T09:59:14;1.77;;;0.50;;
32613;SDS011;19031;51.400;6.770;2022-10-16T10:01:46;2.00;;;0.45;;
32613;SDS011;19031;51.400;6.770;2022-10-16T10:04:20;1.02;;;0.38;;
32613;SDS011;19031;51.400;6.770;2022-10-16T10:06:57;0.93;;;0.45;;
32613;SDS011;19031;51.400;6.770;2022-10-16T10:11:53;0.80;;;0.32;;
32613;SDS011;19031;51.400;6.770;2022-10-16T10:19:50;5.32;;;0.30;;
32613;SDS011;19031;51.400;6.770;2022-10-16T10:22:25;1.05;;;0.40;;
32613;SDS011;19031;51.400;6.770;2022-10-16T10:27:56;2.75;;;0.32;;
32613;SDS011;19031;51.400;6.770;2022-10-16T10:38:47;2.90;;;0.40;;
32613;SDS011;19031;51.400;6.770;2022-10-16T10:41:32;4.15;;;0.80;;
32613;SDS011;19031;51.400;6.770;2022-10-16T10:47:32;2.08;;;0.30;;
32613;SDS011;19031;51.400;6.770;2022-10-16T10:50:06;0.20;;;0.20;;
32613;SDS011;19031;51.400;6.770;2022-10-16T10:52:49;0.65;;;0.22;;
32613;SDS011;19031;51.400;6.770;2022-10-16T11:00:57;3.22;;;0.40;;
32613;SDS011;19031;51.400;6.770;2022-10-16T11:06:44;0.88;;;0.25;;
32613;SDS011;19031;51.400;6.770;2022-10-16T11:09:17;1.25;;;0.38;;
32613;SDS011;19031;51.400;6.770;2022-10-16T11:11:44;1.63;;;0.47;;
32613;SDS011;19031;51.400;6.770;2022-10-16T11:14:21;1.83;;;0.38;;
32613;SDS011;19031;51.400;6.770;2022-10-16T11:22:48;0.88;;;0.30;;
32613;SDS011;19031;51.400;6.770;2022-10-16T11:27:40;1.00;;;0.40;;
32613;SDS011;19031;51.400;6.770;2022-10-16T11:30:16;2.08;;;0.47;;
32613;SDS011;19031;51.400;6.770;2022-10-16T11:38:24;0.57;;;0.30;;
32613;SDS011;19031;51.400;6.770;2022-10-16T11:40:58;0.57;;;0.30;;
32613;SDS011;19031;51.400;6.770;2022-10-16T11:43:35;0.93;;;0.20;;
32613;SDS011;19031;51.400;6.770;2022-10-16T11:46:13;0.38;;;0.30;;
32613;SDS011;19031;51.400;6.770;2022-10-16T11:48:45;3.13;;;0.63;;
32613;SDS011;19031;51.400;6.770;2022-10-16T11:53:56;2.10;;;0.47;;
32613;SDS011;19031;51.400;6.770;2022-10-16T11:56:40;1.30;;;0.28;;
32613;SDS011;19031;51.400;6.770;2022-10-16T12:07:24;1.95;;;0.68;;
32613;SDS011;19031;51.400;6.770;2022-10-16T12:09:57;1.38;;;0.50;;
32613;SDS011;19031;51.400;6.770;2022-10-16T12:12:26;2.25;;;0.50;;
32613;SDS011;19031;51.400;6.770;2022-10-16T12:15:03;1.55;;;0.93;;
32613;SDS011;19031;51.400;6.770;2022-10-16T12:17:42;1.50;;;0.65;;
32613;SDS011;19031;51.400;6.770;2022-10-16T12:22:36;2.35;;;0.30;;
32613;SDS011;19031;51.400;6.770;2022-10-16T12:25:20;2.47;;;0.50;;
32613;SDS011;19031;51.400;6.770;2022-10-16T12:27:53;0.60;;;0.38;;
32613;SDS011;19031;51.400;6.770;2022-10-16T12:30:42;0.60;;;0.25;;
32613;SDS011;19031;51.400;6.770;2022-10-16T12:33:25;2.45;;;0.50;;
32613;SDS011;19031;51.400;6.770;2022-10-16T12:35:52;1.30;;;0.60;;
32613;SDS011;19031;51.400;6.770;2022-10-16T12:41:08;1.08;;;0.60;;
32613;SDS011;19031;51.400;6.770;2022-10-16T12:46:18;1.60;;;0.40;;
32613;SDS011;19031;51.400;6.770;2022-10-16T12:48:48;1.50;;;0.63;;
32613;SDS011;19031;51.400;6.770;2022-10-16T13:07:00;2.00;;;0.43;;
32613;SDS011;19031;51.400;6.770;2022-10-16T13:09:51;4.18;;;0.40;;
32613;SDS011;19031;51.400;6.770;2022-10-16T13:12:46;4.57;;;1.02;;
32613;SDS011;19031;51.400;6.770;2022-10-16T13:18:47;1.65;;;0.40;;
32613;SDS011;19031;51.400;6.770;2022-10-16T13:29:08;2.55;;;0.30;;
32613;SDS011;19031;51.400;6.770;2022-10-16T13:31:36;1.38;;;0.30;;
32613;SDS011;19031;51.400;6.770;2022-10-16T13:34:04;1.60;;;0.30;;
32613;SDS011;19031;51.400;6.770;2022-10-16T13:36:42;5.43;;;0.45;;
32613;SDS011;19031;51.400;6.770;2022-10-16T13:39:11;0.60;;;0.28;;
32613;SDS011;19031;51.400;6.770;2022-10-16T13:41:37;1.48;;;0.35;;
32613;SDS011;19031;51.400;6.770;2022-10-16T13:44:03;0.63;;;0.30;;
32613;SDS011;19031;51.400;6.770;2022-10-16T13:46:30;0.30;;;0.20;;
32613;SDS011;19031;51.400;6.770;2022-10-16T13:49:03;0.70;;;0.30;;
32613;SDS011;19031;51.400;6.770;2022-10-16T13:51:31;2.30;;;0.40;;
32613;SDS011;19031;51.400;6.770;2022-10-16T13:53:57;0.20;;;0.20;;
32613;SDS011;19031;51.400;6.770;2022-10-16T13:56:31;0.40;;;0.20;;
32613;SDS011;19031;51.400;6.770;2022-10-16T13:59:01;5.28;;;0.50;;
32613;SDS011;19031;51.400;6.770;2022-10-16T14:01:32;2.75;;;0.40;;
32613;SDS011;19031;51.400;6.770;2022-10-16T14:04:06;0.70;;;0.30;;
32613;SDS011;19031;51.400;6.770;2022-10-16T14:06:34;1.27;;;0.30;;
32613;SDS011;19031;51.400;6.770;2022-10-16T14:09:04;0.65;;;0.28;;
32613;SDS011;19031;51.400;6.770;2022-10-16T14:11:32;0.88;;;0.30;;
32613;SDS011;19031;51.400;6.770;2022-10-16T14:13:59;0.75;;;0.32;;
32613;SDS011;19031;51.400;6.770;2022-10-16T14:16:26;0.40;;;0.20;;
32613;SDS011;19031;51.400;6.770;2022-10-16T14:18:56;5.10;;;0.30;;
32613;SDS011;19031;51.400;6.770;2022-10-16T14:21:24;1.75;;;0.32;;
32613;SDS011;19031;51.400;6.770;2022-10-16T14:23:51;0.88;;;0.30;;
32613;SDS011;19031;51.400;6.770;2022-10-16T14:26:19;0.43;;;0.20;;
32613;SDS011;19031;51.400;6.770;2022-10-16T14:28:47;0.80;;;0.30;;
32613;SDS011;19031;51.400;6.770;2022-10-16T14:33:50;2.05;;;0.28;;
32613;SDS011;19031;51.400;6.770;2022-10-16T14:36:16;4.97;;;0.40;;
32613;SDS011;19031;51.400;6.770;2022-10-16T14:41:26;5.78;;;0.50;;
32613;SDS011;19031;51.400;6.770;2022-10-16T14:43:54;1.50;;;0.60;;
32613;SDS011;19031;51.400;6.770;2022-10-16T14:46:33;2.08;;;0.75;;
32613;SDS011;19031;51.400;6.770;2022-10-16T14:49:12;1.20;;;0.52;;
32613;SDS011;19031;51.400;6.770;2022-10-16T14:51:42;5.63;;;0.40;;
32613;SDS011;19031;51.400;6.770;2022-10-16T14:54:10;2.40;;;0.60;;
32613;SDS011;19031;51.400;6.770;2022-10-16T14:56:45;1.15;;;0.40;;
32613;SDS011;19031;51.400;6.770;2022-10-16T14:59:15;3.70;;;0.60;;
32613;SDS011;19031;51.400;6.770;2022-10-16T15:01:44;0.60;;;0.25;;
32613;SDS011;19031;51.400;6.770;2022-10-16T15:04:11;1.02;;;0.52;;
32613;SDS011;19031;51.400;6.770;2022-10-16T15:06:37;2.67;;;0.95;;
32613;SDS011;19031;51.400;6.770;2022-10-16T15:09:03;3.70;;;1.40;;
32613;SDS011;19031;51.400;6.770;2022-10-16T15:11:29;3.65;;;0.88;;
32613;SDS011;19031;51.400;6.770;2022-10-16T15:13:57;1.45;;;0.80;;
32613;SDS011;19031;51.400;6.770;2022-10-16T15:16:23;2.67;;;0.70;;
32613;SDS011;19031;51.400;6.770;2022-10-16T15:18:49;2.67;;;0.95;;
32613;SDS011;19031;51.400;6.770;2022-10-16T15:21:24;2.55;;;0.70;;
32613;SDS011;19031;51.400;6.770;2022-10-16T15:23:52;1.35;;;0.60;;
32613;SDS011;19031;51.400;6.770;2022-10-16T15:26:18;2.97;;;0.73;;
32613;SDS011;19031;51.400;6.770;2022-10-16T15:28:44;1.15;;;0.52;;
32613;SDS011;19031;51.400;6.770;2022-10-16T15:31:09;1.38;;;0.60;;
32613;SDS011;19031;51.400;6.770;2022-10-16T15:33:35;2.90;;;0.80;;
32613;SDS011;19031;51.400;6.770;2022-10-16T15:36:01;5.40;;;0.90;;
32613;SDS011;19031;51.400;6.770;2022-10-16T15:38:28;2.33;;;0.50;;
32613;SDS011;19031;51.400;6.770;2022-10-16T15:40:54;3.35;;;1.10;;
32613;SDS011;19031;51.400;6.770;2022-10-16T15:43:20;9.15;;;1.00;;
32613;SDS011;19031;51.400;6.770;2022-10-16T15:45:59;2.80;;;0.88;;
32613;SDS011;19031;51.400;6.770;2022-10-16T15:48:28;1.63;;;0.73;;
32613;SDS011;19031;51.400;6.770;2022-10-16T15:50:55;5.32;;;0.82;;
32613;SDS011;19031;51.400;6.770;2022-10-16T15:53:20;3.70;;;0.77;;
32613;SDS011;19031;51.400;6.770;2022-10-16T15:55:46;7.80;;;0.73;;
32613;SDS011;19031;51.400;6.770;2022-10-16T15:58:11;1.88;;;0.68;;
32613;SDS011;19031;51.400;6.770;2022-10-16T16:00:37;2.35;;;0.65;;
32613;SDS011;19031;51.400;6.770;2022-10-16T16:03:03;1.67;;;0.65;;
32613;SDS011;19031;51.400;6.770;2022-10-16T16:05:29;2.45;;;0.47;;
32613;SDS011;19031;51.400;6.770;2022-10-16T16:07:54;1.80;;;0.98;;
32613;SDS011;19031;51.400;6.770;2022-10-16T16:10:20;2.22;;;1.30;;
32613;SDS011;19031;51.400;6.770;2022-10-16T16:12:46;2.92;;;0.98;;
32613;SDS011;19031;51.400;6.770;2022-10-16T16:15:17;2.53;;;1.80;;
32613;SDS011;19031;51.400;6.770;2022-10-16T16:17:43;5.35;;;1.58;;
32613;SDS011;19031;51.400;6.770;2022-10-16T16:20:09;4.60;;;2.30;;
32613;SDS011;19031;51.400;6.770;2022-10-16T16:22:35;5.00;;;2.28;;
32613;SDS011;19031;51.400;6.770;2022-10-16T16:25:01;6.72;;;0.80;;
32613;SDS011;19031;51.400;6.770;2022-10-16T16:27:26;8.35;;;1.10;;
32613;SDS011;19031;51.400;6.770;2022-10-16T16:29:54;3.42;;;0.80;;
32613;SDS011;19031;51.400;6.770;2022-10-16T16:32:20;2.08;;;1.30;;
32613;SDS011;19031;51.400;6.770;2022-10-16T16:34:46;2.33;;;0.85;;
32613;SDS011;19031;51.400;6.770;2022-10-16T16:37:12;1.77;;;1.08;;
32613;SDS011;19031;51.400;6.770;2022-10-16T16:39:38;2.65;;;1.08;;
32613;SDS011;19031;51.400;6.770;2022-10-16T16:42:03;4.72;;;1.08;;
32613;SDS011;19031;51.400;6.770;2022-10-16T16:44:31;9.52;;;1.00;;
32613;SDS011;19031;51.400;6.770;2022-10-16T16:46:56;1.63;;;0.80;;
32613;SDS011;19031;51.400;6.770;2022-10-16T16:49:22;2.50;;;0.85;;
32613;SDS011;19031;51.400;6.770;2022-10-16T16:51:48;3.83;;;0.90;;
32613;SDS011;19031;51.400;6.770;2022-10-16T16:54:14;2.42;;;0.73;;
32613;SDS011;19031;51.400;6.770;2022-10-16T16:56:39;1.45;;;0.77;;
32613;SDS011;19031;51.400;6.770;2022-10-16T16:59:15;3.75;;;1.27;;
32613;SDS011;19031;51.400;6.770;2022-10-16T17:01:43;1.63;;;0.90;;
32613;SDS011;19031;51.400;6.770;2022-10-16T17:04:09;2.33;;;0.90;;
32613;SDS011;19031;51.400;6.770;2022-10-16T17:06:35;3.55;;;0.90;;
32613;SDS011;19031;51.400;6.770;2022-10-16T17:09:02;9.60;;;2.25;;
32613;SDS011;19031;51.400;6.770;2022-10-16T17:11:38;2.78;;;1.20;;
32613;SDS011;19031;51.400;6.770;2022-10-16T17:14:06;1.38;;;0.68;;